.
WxDataArchive / Data Records for 2012-01-20
2012-01-19 January 2012 2012-01-21

Data Records for Friday, 20 January 2012

Time	Temp	Chill	HIndex	Humid	Dewpt	 Wind 	HiWind	WindDir	Rain 	Barom 
-----	----	-----	------	-----	-----	------	------	-------	-----	----- 
00:00	12.6	12.6	12.6	66	3.4	0	1	248	0.00	30.201 
00:05	12.6	12.6	12.6	66	3.4	0	1	248	0.00	30.201 
00:10	12.6	12.6	12.6	66	3.4	0	2	248	0.00	30.201 
00:15	12.4	12.4	12.4	66	3.2	0	2	248	0.00	30.205 
00:20	12.4	12.4	12.4	66	3.2	0	1	248	0.00	30.205 
00:25	12.6	12.6	12.6	66	3.4	0	1	248	0.00	30.205 
00:30	12.4	12.4	12.4	67	3.6	0	0	---	0.00	30.198 
00:35	12.4	12.4	12.4	67	3.6	0	0	---	0.00	30.198 
00:40	12.4	12.4	12.4	67	3.6	0	0	---	0.00	30.198 
00:45	12.4	12.4	12.4	68	3.9	0	0	---	0.00	30.201 
00:50	12.4	12.4	12.4	68	3.9	0	0	---	0.00	30.201 
00:55	12.3	12.3	12.3	68	3.8	0	1	248	0.00	30.201 
01:00	12.3	12.3	12.3	68	3.8	0	1	248	0.00	30.208 
01:05	12.4	12.4	12.4	68	3.9	0	0	---	0.00	30.208 
01:10	12.4	12.4	12.4	67	3.6	0	1	248	0.00	30.208 
01:15	12.3	12.3	12.3	68	3.8	0	0	---	0.00	30.214 
01:20	12.3	12.3	12.3	68	3.8	0	0	---	0.00	30.214 
01:25	12.1	12.1	12.1	68	3.6	0	1	248	0.00	30.214 
01:30	12.1	12.1	12.1	68	3.6	0	0	---	0.00	30.215 
01:35	11.9	11.9	11.9	68	3.4	0	0	---	0.00	30.215 
01:40	11.7	11.7	11.7	68	3.2	0	0	---	0.00	30.215 
01:45	11.6	11.6	11.6	69	3.4	0	0	---	0.00	30.228 
01:50	11.4	11.4	11.4	69	3.2	0	0	---	0.00	30.228 
01:55	11.2	11.2	11.2	69	3.0	0	0	---	0.00	30.228 
02:00	11.1	11.1	11.1	70	3.3	0	0	---	0.00	30.224 
02:05	10.7	10.7	10.7	70	2.9	0	0	---	0.00	30.224 
02:10	10.5	10.5	10.5	70	2.7	0	0	---	0.00	30.224 
02:15	10.4	10.4	10.4	71	2.9	0	0	---	0.00	30.232 
02:20	10.0	10.0	10.0	71	2.5	0	0	---	0.00	30.232 
02:25	9.9	9.9	9.9	71	2.4	0	0	---	0.00	30.232 
02:30	9.5	9.5	9.5	71	2.0	0	0	---	0.00	30.245 
02:35	9.3	9.3	9.3	72	2.1	0	0	---	0.00	30.245 
02:40	9.0	9.0	9.0	72	1.8	0	0	---	0.00	30.245 
02:45	8.6	8.6	8.6	73	1.8	0	0	---	0.00	30.240 
02:50	8.3	8.3	8.3	73	1.5	0	0	---	0.00	30.240 
02:55	8.1	8.1	8.1	74	1.6	0	0	---	0.00	30.240 
03:00	7.9	7.9	7.9	74	1.4	0	0	---	0.00	30.251 
03:05	7.6	7.6	7.6	75	1.4	0	0	---	0.00	30.251 
03:10	7.2	7.2	7.2	75	1.0	0	0	---	0.00	30.251 
03:15	7.0	7.0	7.0	75	0.8	0	0	---	0.00	30.256 
03:20	6.9	6.9	6.9	75	0.7	0	0	---	0.00	30.256 
03:25	6.7	6.7	6.7	76	0.8	0	0	---	0.00	30.256 
03:30	6.5	6.5	6.5	77	0.9	0	0	---	0.00	30.254 
03:35	6.3	6.3	6.3	77	0.7	0	0	---	0.00	30.254 
03:40	6.1	6.1	6.1	77	0.5	0	0	---	0.00	30.254 
03:45	6.0	6.0	6.0	78	0.6	0	0	---	0.00	30.252 
03:50	5.8	5.8	5.8	79	0.7	0	2	248	0.00	30.252 
03:55	6.0	6.0	6.0	80	1.2	0	1	248	0.00	30.252 
04:00	6.3	6.3	6.3	81	1.7	0	2	248	0.00	30.253 
04:05	6.9	6.9	6.9	81	2.3	0	1	248	0.00	30.253 
04:10	7.2	7.2	7.2	80	2.4	0	1	248	0.00	30.253 
04:15	7.4	7.4	7.4	80	2.5	0	0	---	0.00	30.255 
04:20	7.4	7.4	7.4	80	2.5	0	0	---	0.00	30.255 
04:25	7.4	7.4	7.4	80	2.5	0	0	---	0.00	30.255 
04:30	7.6	7.6	7.6	81	3.0	0	1	248	0.00	30.242 
04:35	7.9	7.9	7.9	81	3.3	0	1	248	0.00	30.242 
04:40	8.3	8.3	8.3	80	3.4	0	1	248	0.00	30.242 
04:45	8.4	8.4	8.4	80	3.5	0	1	248	0.00	30.254 
04:50	8.6	8.6	8.6	79	3.4	0	1	248	0.00	30.254 
04:55	8.6	8.6	8.6	79	3.4	0	1	248	0.00	30.254 
05:00	8.6	8.6	8.6	78	3.2	0	1	248	0.00	30.252 
05:05	8.6	8.6	8.6	77	2.9	0	2	248	0.00	30.252 
05:10	8.6	8.6	8.6	77	2.9	0	1	248	0.00	30.252 
05:15	8.6	8.6	8.6	76	2.6	0	3	248	0.00	30.251 
05:20	8.6	8.6	8.6	75	2.3	1	2	248	0.00	30.251 
05:25	8.8	8.8	8.8	74	2.2	0	1	248	0.00	30.251 
05:30	8.8	8.8	8.8	75	2.5	0	0	---	0.00	30.255 
05:35	9.0	9.0	9.0	74	2.4	0	0	---	0.00	30.255 
05:40	9.0	9.0	9.0	75	2.7	0	1	248	0.00	30.255 
05:45	9.0	9.0	9.0	74	2.4	0	1	248	0.00	30.266 
05:50	9.0	9.0	9.0	74	2.4	0	1	248	0.00	30.266 
05:55	9.0	9.0	9.0	74	2.4	0	1	248	0.00	30.266 
06:00	9.0	9.0	9.0	75	2.7	0	0	---	0.00	30.269 
06:05	9.2	9.2	9.2	75	2.9	0	0	---	0.00	30.269 
06:10	9.2	9.2	9.2	75	2.9	0	1	248	0.00	30.269 
06:15	9.2	9.2	9.2	76	3.2	0	1	248	0.00	30.265 
06:20	9.3	9.3	9.3	76	3.3	0	1	248	0.00	30.265 
06:25	9.5	9.5	9.5	76	3.5	0	1	248	0.00	30.265 
06:30	9.5	9.5	9.5	76	3.5	0	2	248	0.00	30.261 
06:35	9.5	9.5	9.5	76	3.5	0	2	248	0.00	30.261 
06:40	9.5	9.5	9.5	76	3.5	0	2	248	0.00	30.261 
06:45	9.5	9.5	9.5	76	3.5	0	0	---	0.00	30.277 
06:50	9.5	9.5	9.5	76	3.5	0	1	248	0.00	30.277 
06:55	9.5	9.5	9.5	76	3.5	0	1	248	0.00	30.277 
07:00	9.5	9.5	9.5	76	3.5	0	1	248	0.00	30.285 
07:05	9.5	9.5	9.5	77	3.8	0	1	248	0.00	30.285 
07:10	9.3	9.3	9.3	77	3.6	0	1	248	0.00	30.285 
07:15	9.3	9.3	9.3	77	3.6	0	1	248	0.00	30.276 
07:20	9.3	9.3	9.3	76	3.3	0	1	248	0.00	30.276 
07:25	9.2	9.2	9.2	76	3.2	0	1	248	0.00	30.276 
07:30	9.2	9.2	9.2	76	3.2	0	1	248	0.00	30.286 
07:35	9.0	9.0	9.0	76	3.0	0	1	248	0.00	30.286 
07:40	9.0	9.0	9.0	76	3.0	0	0	---	0.00	30.286 
07:45	8.8	8.8	8.8	76	2.8	0	0	---	0.00	30.302 
07:50	8.6	8.6	8.6	77	2.9	0	0	---	0.00	30.302 
07:55	8.4	8.4	8.4	77	2.7	0	0	---	0.00	30.302 
08:00	8.3	8.3	8.3	77	2.6	0	0	---	0.00	30.316 
08:05	8.3	8.3	8.3	77	2.6	0	0	---	0.00	30.316 
08:10	8.3	8.3	8.3	78	2.9	0	1	248	0.00	30.316 
08:15	8.4	8.4	8.4	78	3.0	0	1	248	0.00	30.310 
08:20	8.8	8.8	8.8	78	3.4	0	1	248	0.00	30.310 
08:25	9.2	9.2	9.2	78	3.8	0	0	---	0.00	30.310 
08:30	9.3	9.3	9.3	78	3.9	0	1	248	0.00	30.317 
08:35	9.7	9.7	9.7	78	4.2	0	1	248	0.00	30.317 
08:40	9.9	9.9	9.9	77	4.2	0	1	248	0.00	30.317 
08:45	10.0	10.0	10.0	77	4.3	0	1	248	0.00	30.322 
08:50	10.2	10.2	10.2	76	4.2	1	3	248	0.00	30.322 
08:55	10.4	10.4	10.4	75	4.1	0	2	248	0.00	30.322 
09:00	10.5	10.5	10.5	74	3.9	1	3	248	0.00	30.319 
09:05	10.5	10.5	10.5	74	3.9	1	3	90	0.00	30.319 
09:10	10.7	10.7	10.7	73	3.8	2	4	90	0.00	30.319 
09:15	10.9	10.9	10.9	73	4.0	1	5	90	0.00	30.318 
09:20	11.1	11.1	11.1	72	3.9	1	2	90	0.00	30.318 
09:25	11.2	11.2	11.2	72	4.0	1	2	158	0.00	30.318 
09:30	11.4	11.4	11.4	72	4.2	1	5	90	0.00	30.319 
09:35	11.6	11.6	11.6	71	4.0	1	4	90	0.00	30.319 
09:40	11.9	11.9	11.9	71	4.3	1	5	90	0.00	30.319 
09:45	11.7	11.7	11.7	70	3.8	3	6	90	0.00	30.311 
09:50	11.9	11.9	11.9	70	4.0	1	4	112	0.00	30.311 
09:55	12.1	12.1	12.1	70	4.2	2	6	90	0.00	30.311 
10:00	12.1	12.1	12.1	69	3.9	2	5	68	0.00	30.300 
10:05	12.3	12.3	12.3	69	4.1	2	5	90	0.00	30.300 
10:10	12.4	12.4	12.4	69	4.2	2	6	112	0.00	30.300 
10:15	12.4	5.4	12.4	67	3.6	4	6	90	0.00	30.289 
10:20	12.3	12.3	12.3	66	3.1	3	6	112	0.00	30.289 
10:25	12.4	5.4	12.4	66	3.2	4	9	90	0.00	30.289 
10:30	12.4	5.4	12.4	66	3.2	4	9	112	0.00	30.278 
10:35	12.8	12.8	12.8	65	3.3	3	7	90	0.00	30.278 
10:40	13.3	13.3	13.3	65	3.8	3	10	112	0.00	30.278 
10:45	13.3	6.5	13.3	65	3.8	4	10	90	0.00	30.268 
10:50	13.1	13.1	13.1	65	3.6	3	7	90	0.00	30.268 
10:55	13.1	13.1	13.1	65	3.6	3	8	112	0.00	30.268 
11:00	13.1	6.2	13.1	65	3.6	4	9	90	0.00	30.264 
11:05	13.3	13.3	13.3	66	4.1	2	6	112	0.00	30.264 
11:10	13.5	5.3	13.5	65	4.0	5	10	112	0.00	30.264 
11:15	13.6	5.5	13.6	64	3.7	5	9	90	0.00	30.263 
11:20	13.6	13.6	13.6	65	4.1	3	6	112	0.00	30.263 
11:25	14.0	14.0	14.0	65	4.4	3	7	68	0.00	30.263 
11:30	13.8	5.7	13.8	64	3.9	5	10	112	0.00	30.264 
11:35	14.0	7.3	14.0	64	4.1	4	10	90	0.00	30.264 
11:40	14.1	14.1	14.1	65	4.5	3	7	112	0.00	30.264 
11:45	14.1	7.4	14.1	64	4.2	4	11	90	0.00	30.251 
11:50	14.1	14.1	14.1	65	4.5	3	7	90	0.00	30.251 
11:55	14.4	14.4	14.4	65	4.8	3	7	90	0.00	30.251 
12:00	14.3	7.6	14.3	64	4.4	4	9	90	0.00	30.245 
12:05	14.3	7.6	14.3	65	4.7	4	10	90	0.00	30.245 
12:10	14.4	7.7	14.4	64	4.5	4	11	90	0.00	30.245 
12:15	14.3	6.3	14.3	63	4.0	5	11	90	0.00	30.239 
12:20	14.6	14.6	14.6	65	5.0	2	6	90	0.00	30.239 
12:25	14.8	14.8	14.8	64	4.9	3	6	90	0.00	30.239 
12:30	14.9	14.9	14.9	65	5.3	3	6	112	0.00	30.231 
12:35	15.1	15.1	15.1	64	5.1	3	9	90	0.00	30.231 
12:40	14.9	8.3	14.9	63	4.6	4	10	90	0.00	30.231 
12:45	15.1	15.1	15.1	64	5.1	3	7	90	0.00	30.220 
12:50	15.2	15.2	15.2	64	5.2	3	6	90	0.00	30.220 
12:55	15.2	15.2	15.2	63	4.9	3	6	90	0.00	30.220 
13:00	15.2	15.2	15.2	63	4.9	3	9	90	0.00	30.217 
13:05	15.2	15.2	15.2	63	4.9	3	9	90	0.00	30.217 
13:10	15.2	15.2	15.2	63	4.9	3	6	90	0.00	30.217 
13:15	15.2	15.2	15.2	62	4.6	3	7	112	0.00	30.218 
13:20	15.1	8.6	15.1	62	4.5	4	7	90	0.00	30.218 
13:25	15.2	15.2	15.2	63	4.9	3	6	90	0.00	30.218 
13:30	15.2	15.2	15.2	63	4.9	3	6	90	0.00	30.207 
13:35	15.4	15.4	15.4	62	4.7	2	7	68	0.00	30.207 
13:40	15.6	15.6	15.6	63	5.3	2	5	112	0.00	30.207 
13:45	15.6	15.6	15.6	62	4.9	2	4	112	0.00	30.202 
13:50	15.6	15.6	15.6	62	4.9	2	4	90	0.00	30.202 
13:55	15.4	15.4	15.4	62	4.7	3	7	112	0.00	30.202 
14:00	15.4	15.4	15.4	62	4.7	3	9	90	0.00	30.194 
14:05	15.4	15.4	15.4	62	4.7	2	5	90	0.00	30.194 
14:10	15.4	15.4	15.4	62	4.7	3	8	90	0.00	30.194 
14:15	15.4	15.4	15.4	63	5.1	2	5	112	0.00	30.190 
14:20	15.4	15.4	15.4	63	5.1	3	6	112	0.00	30.190 
14:25	15.4	8.9	15.4	62	4.7	4	7	90	0.00	30.190 
14:30	15.4	15.4	15.4	65	5.8	3	6	90	0.00	30.175 
14:35	15.4	15.4	15.4	66	6.1	3	5	90	0.00	30.175 
14:40	15.4	15.4	15.4	68	6.8	3	9	90	0.00	30.175 
14:45	15.1	8.6	15.1	71	7.4	4	7	90	0.00	30.164 
14:50	14.8	8.2	14.8	72	7.4	4	8	90	0.00	30.164 
14:55	14.8	8.2	14.8	74	8.0	4	9	90	0.00	30.164 
15:00	14.6	14.6	14.6	76	8.4	3	9	90	0.00	30.155 
15:05	14.6	14.6	14.6	77	8.7	3	7	90	0.00	30.155 
15:10	14.6	8.0	14.6	77	8.7	4	7	90	0.00	30.155 
15:15	14.4	7.7	14.4	77	8.5	4	7	90	0.00	30.153 
15:20	14.4	7.7	14.4	78	8.8	4	7	112	0.00	30.153 
15:25	14.4	7.7	14.4	78	8.8	4	9	112	0.00	30.153 
15:30	14.4	7.7	14.4	79	9.1	4	8	90	0.00	30.148 
15:35	14.6	14.6	14.6	80	9.6	3	6	90	0.00	30.148 
15:40	14.6	14.6	14.6	81	9.9	3	7	90	0.00	30.148 
15:45	14.8	14.8	14.8	81	10.0	3	9	112	0.00	30.146 
15:50	14.8	14.8	14.8	81	10.0	3	10	112	0.00	30.146 
15:55	14.8	14.8	14.8	81	10.0	3	6	90	0.00	30.146 
16:00	14.9	14.9	14.9	82	10.4	2	6	90	0.00	30.146 
16:05	14.9	14.9	14.9	82	10.4	2	6	90	0.00	30.146 
16:10	15.1	15.1	15.1	83	10.9	1	6	90	0.00	30.146 
16:15	15.1	15.1	15.1	83	10.9	2	10	112	0.00	30.153 
16:20	15.1	15.1	15.1	83	10.9	2	6	90	0.00	30.153 
16:25	15.1	15.1	15.1	83	10.9	1	4	90	0.00	30.153 
16:30	15.2	15.2	15.2	84	11.3	1	4	90	0.00	30.166 
16:35	15.2	15.2	15.2	84	11.3	2	4	90	0.00	30.166 
16:40	15.2	15.2	15.2	84	11.3	1	4	68	0.00	30.166 
16:45	15.2	15.2	15.2	84	11.3	1	4	68	0.00	30.172 
16:50	15.2	15.2	15.2	84	11.3	1	3	0	0.00	30.172 
16:55	15.2	15.2	15.2	84	11.3	0	2	45	0.00	30.172 
17:00	15.2	15.2	15.2	84	11.3	0	2	45	0.00	30.186 
17:05	15.2	15.2	15.2	84	11.3	0	3	112	0.00	30.186 
17:10	15.2	15.2	15.2	84	11.3	0	3	112	0.00	30.186 
17:15	15.2	15.2	15.2	85	11.5	0	2	112	0.00	30.184 
17:20	15.2	15.2	15.2	85	11.5	1	3	68	0.00	30.184 
17:25	15.2	15.2	15.2	85	11.5	0	2	45	0.00	30.184 
17:30	15.2	15.2	15.2	85	11.5	1	5	90	0.00	30.174 
17:35	15.1	15.1	15.1	85	11.4	1	5	90	0.00	30.174 
17:40	15.1	15.1	15.1	85	11.4	1	4	22	0.00	30.174 
17:45	15.2	15.2	15.2	85	11.5	0	3	112	0.00	30.178 
17:50	15.2	15.2	15.2	85	11.5	1	4	112	0.00	30.178 
17:55	15.2	15.2	15.2	85	11.5	1	4	112	0.00	30.178 
18:00	15.2	15.2	15.2	85	11.5	0	2	90	0.00	30.194 
18:05	15.2	15.2	15.2	86	11.8	1	2	68	0.00	30.194 
18:10	15.4	15.4	15.4	86	12.0	1	2	68	0.00	30.194 
18:15	15.4	15.4	15.4	86	12.0	1	3	112	0.00	30.176 
18:20	15.4	15.4	15.4	86	12.0	1	4	112	0.00	30.176 
18:25	15.4	15.4	15.4	86	12.0	1	3	68	0.00	30.176 
18:30	15.4	15.4	15.4	86	12.0	1	4	68	0.00	30.164 
18:35	15.4	15.4	15.4	86	12.0	2	5	68	0.00	30.164 
18:40	15.4	15.4	15.4	86	12.0	2	10	45	0.00	30.164 
18:45	15.2	15.2	15.2	86	11.8	2	6	112	0.00	30.147 
18:50	15.2	15.2	15.2	86	11.8	2	7	45	0.00	30.147 
18:55	15.1	15.1	15.1	86	11.7	2	6	90	0.00	30.147 
19:00	15.1	15.1	15.1	86	11.7	1	5	112	0.00	30.128 
19:05	15.1	15.1	15.1	86	11.7	2	7	68	0.00	30.128 
19:10	15.1	15.1	15.1	86	11.7	2	7	22	0.00	30.128 
19:15	15.1	15.1	15.1	86	11.7	2	6	90	0.00	30.132 
19:20	15.1	15.1	15.1	86	11.7	2	9	112	0.00	30.132 
19:25	15.1	15.1	15.1	86	11.7	2	6	90	0.00	30.132 
19:30	15.1	15.1	15.1	86	11.7	3	10	112	0.00	30.127 
19:35	15.1	15.1	15.1	86	11.7	2	10	90	0.00	30.127 
19:40	15.1	15.1	15.1	86	11.7	3	10	90	0.00	30.127 
19:45	15.1	15.1	15.1	86	11.7	2	9	90	0.00	30.136 
19:50	15.1	15.1	15.1	86	11.7	3	6	112	0.00	30.136 
19:55	15.2	15.2	15.2	86	11.8	2	7	90	0.00	30.136 
20:00	15.2	15.2	15.2	86	11.8	2	7	90	0.00	30.139 
20:05	15.2	15.2	15.2	86	11.8	3	10	90	0.00	30.139 
20:10	15.1	8.6	15.1	86	11.7	4	10	90	0.00	30.139 
20:15	15.1	8.6	15.1	86	11.7	4	12	90	0.00	30.120 
20:20	15.1	15.1	15.1	86	11.7	3	7	112	0.00	30.120 
20:25	15.1	15.1	15.1	86	11.7	3	11	90	0.00	30.120 
20:30	15.1	15.1	15.1	86	11.7	3	9	90	0.00	30.106 
20:35	15.1	15.1	15.1	87	11.9	2	7	90	0.00	30.106 
20:40	15.1	15.1	15.1	87	11.9	2	4	112	0.00	30.106 
20:45	15.1	15.1	15.1	87	11.9	2	6	112	0.00	30.103 
20:50	15.1	15.1	15.1	87	11.9	2	6	90	0.00	30.103 
20:55	15.1	15.1	15.1	87	11.9	1	10	135	0.00	30.103 
21:00	15.1	15.1	15.1	87	11.9	2	10	45	0.00	30.106 
21:05	15.1	15.1	15.1	87	11.9	1	7	90	0.00	30.106 
21:10	15.1	15.1	15.1	87	11.9	2	7	112	0.00	30.106 
21:15	15.1	15.1	15.1	87	11.9	3	7	68	0.00	30.099 
21:20	15.1	15.1	15.1	87	11.9	2	6	90	0.00	30.099 
21:25	15.1	15.1	15.1	87	11.9	2	7	112	0.00	30.099 
21:30	15.1	15.1	15.1	87	11.9	1	5	90	0.00	30.090 
21:35	15.1	15.1	15.1	87	11.9	1	5	112	0.00	30.090 
21:40	15.1	15.1	15.1	87	11.9	3	11	90	0.00	30.090 
21:45	15.1	15.1	15.1	87	11.9	1	5	68	0.00	30.089 
21:50	15.1	15.1	15.1	87	11.9	1	4	90	0.00	30.089 
21:55	15.1	15.1	15.1	87	11.9	1	5	90	0.00	30.089 
22:00	15.2	15.2	15.2	87	12.0	1	3	45	0.00	30.093 
22:05	15.2	15.2	15.2	87	12.0	2	7	90	0.00	30.093 
22:10	15.2	15.2	15.2	87	12.0	1	5	90	0.00	30.093 
22:15	15.4	15.4	15.4	87	12.2	1	6	90	0.00	30.090 
22:20	15.4	15.4	15.4	87	12.2	1	4	90	0.00	30.090 
22:25	15.4	15.4	15.4	87	12.2	1	3	90	0.00	30.090 
22:30	15.4	15.4	15.4	87	12.2	1	4	90	0.00	30.089 
22:35	15.6	15.6	15.6	87	12.4	1	4	90	0.00	30.089 
22:40	15.6	15.6	15.6	87	12.4	1	5	90	0.00	30.089 
22:45	15.6	15.6	15.6	87	12.4	1	4	45	0.00	30.089 
22:50	15.6	15.6	15.6	87	12.4	2	5	90	0.00	30.089 
22:55	15.7	15.7	15.7	87	12.5	3	9	90	0.00	30.089 
23:00	15.7	15.7	15.7	87	12.5	3	9	112	0.00	30.084 
23:05	15.7	15.7	15.7	87	12.5	3	12	90	0.00	30.084 
23:10	15.7	15.7	15.7	87	12.5	3	6	112	0.00	30.084 
23:15	15.9	15.9	15.9	87	12.7	2	5	112	0.00	30.078 
23:20	15.9	15.9	15.9	87	12.7	2	6	90	0.00	30.078 
23:25	15.9	15.9	15.9	87	12.7	2	7	90	0.00	30.078 
23:30	15.9	15.9	15.9	87	12.7	3	7	90	0.00	30.072 
23:35	15.9	15.9	15.9	87	12.7	2	9	90	0.00	30.072 
23:40	15.9	15.9	15.9	87	12.7	2	7	90	0.00	30.072 
23:45	16.1	16.1	16.1	87	12.9	2	5	112	0.00	30.072 
23:50	16.1	16.1	16.1	87	12.9	1	5	90	0.00	30.072 
23:55	16.1	16.1	16.1	87	12.9	2	6	112	0.00	30.072 

CoCoRaHS
IN-AL-39
A2 Web Hosting
Creative Commons License
GoDaddy
search engine by freefind advanced

loaded 2018-11-13 22:18:05 • last modified 2010-11-18 10:43:29
Privacy PolicyDisclaimer
• wx.awcolley.com is powered by PmWiki v.2002016 •
• all content (unless otherwise noted) © 2018 A W Colley